메인 페이지
METAR-TAF:

METAR-TAF

공항 :

Sullivan County International Airport

Monticello, 뉴욕, 미국

위도: 41-42N, 경도: 074-48W, 고도: 428m

현재 날씨관측

예보는 1 시간 2분 전, 18:56시(UTC)에 발표되었습니다.
7kt남서풍과 서북서풍을 오가는
온도 -1°C
습도 64%
기압 1001 hPa
시정: 16.1km
고도 3000ft 상공 흐림

METAR: KMSV 211856Z AUTO 27007KT 230V300 10SM OVC030 M01/M07 A2957 RMK AO2 SLP034 T10061067 FZRANO

시각: 14:58 (19:58 UTC)


TAF: 누락

4,000개 이상의 공항 관측 자료 및 예보 (METAR 및 TAF 보고).

지도상에서 검색 가능한 기상관측소가 노란 점과 빨간 점으로 표시되어 있습니다.

기상관측소 명을 보려면 표시 위로 마우스를 이동하세요.

날씨 관측과 예보를 보려면 클릭하세요.

지도 변경 : 확대하려면 엑스 표시가 있는 녹색 버튼, 축소하려면 빼기 표시가 있는 녹색 버튼, 다음 페이지의 지도를 보려면 녹색 화살표를 클릭하세요.


METAR-TAF: